Time;durP1;ratioP1;P1;durP2;ratioP2;P2;SDS_P1;SDS_P2;PMS_P1;PMS_P2;Temp;Humidity;BMP_temperature;BMP_pressure;BME280_temperature;BME280_humidity;BME280_pressure;Samples;Min_cycle;Max_cycle;Signal;HPM_P1;HPM_P2
2023/12/15 00:00:37;;;;;;;13.63;9.67;;;2.30;52.20;;;;;;4990633;28;20437;-56
2023/12/15 00:03:05;;;;;;;13.37;8.97;;;2.30;51.20;;;;;;4988784;28;20441;-55
2023/12/15 00:05:32;;;;;;;10.77;8.60;;;2.30;52.60;;;;;;4987685;28;20571;-56
2023/12/15 00:07:59;;;;;;;12.80;9.27;;;2.30;53.30;;;;;;4991761;28;20488;-56
2023/12/15 00:10:26;;;;;;;13.80;9.47;;;2.40;51.00;;;;;;4982913;28;20827;-57
2023/12/15 00:12:52;;;;;;;10.37;8.27;;;2.40;51.70;;;;;;4987315;28;20463;-58
2023/12/15 00:15:19;;;;;;;10.10;8.30;;;2.30;53.80;;;;;;4987960;28;20499;-57
2023/12/15 00:17:45;;;;;;;10.67;8.93;;;2.30;53.80;;;;;;4985249;28;20986;-56
2023/12/15 00:20:13;;;;;;;12.03;9.00;;;2.30;53.90;;;;;;4988047;28;20445;-57
2023/12/15 00:22:40;;;;;;;9.93;8.90;;;2.30;53.60;;;;;;4987977;28;20985;-56
2023/12/15 00:25:07;;;;;;;12.67;9.10;;;2.30;54.40;;;;;;4991239;28;20484;-57
2023/12/15 00:27:34;;;;;;;11.33;10.00;;;2.30;55.60;;;;;;4983741;28;20528;-57
2023/12/15 00:30:00;;;;;;;17.87;10.97;;;2.30;55.50;;;;;;4986430;28;20446;-56
2023/12/15 00:32:27;;;;;;;9.97;8.87;;;2.30;56.50;;;;;;4989593;28;20992;-56
2023/12/15 00:34:53;;;;;;;13.00;10.10;;;2.30;56.60;;;;;;4986826;28;20868;-56
2023/12/15 00:37:21;;;;;;;11.57;9.73;;;2.20;55.30;;;;;;4992207;28;20526;-58
2023/12/15 00:39:48;;;;;;;11.63;8.90;;;2.30;54.30;;;;;;4984777;28;20448;-56
2023/12/15 00:42:14;;;;;;;13.73;9.40;;;2.30;52.90;;;;;;4982970;28;20862;-56
2023/12/15 00:44:41;;;;;;;11.40;8.40;;;2.30;54.40;;;;;;4990422;28;20483;-57
2023/12/15 00:47:08;;;;;;;9.83;8.80;;;2.20;55.20;;;;;;4988685;28;20464;-58
2023/12/15 00:49:34;;;;;;;9.73;8.70;;;2.20;54.20;;;;;;4990111;28;20444;-58
2023/12/15 00:52:01;;;;;;;11.97;8.27;;;2.20;52.90;;;;;;4986066;28;21322;-58
2023/12/15 00:54:29;;;;;;;13.40;8.57;;;2.20;52.20;;;;;;4986811;28;20825;-58
2023/12/15 00:56:55;;;;;;;9.13;7.47;;;2.20;51.10;;;;;;4988410;28;20515;-58
2023/12/15 00:59:22;;;;;;;11.07;8.77;;;2.20;49.00;;;;;;4984933;28;20491;-57
2023/12/15 01:01:48;;;;;;;8.77;7.70;;;2.20;49.00;;;;;;4985316;28;20824;-57
2023/12/15 01:04:15;;;;;;;10.07;8.47;;;2.20;48.50;;;;;;4989032;28;20868;-58
2023/12/15 01:06:41;;;;;;;11.00;8.43;;;2.20;49.00;;;;;;4989034;28;20547;-56
2023/12/15 01:09:08;;;;;;;12.13;7.20;;;2.20;48.10;;;;;;4987153;28;20468;-57
2023/12/15 01:11:36;;;;;;;8.87;7.70;;;2.20;49.40;;;;;;4986137;28;20449;-57
2023/12/15 01:14:03;;;;;;;10.70;8.67;;;2.20;49.20;;;;;;4991301;28;20448;-57
2023/12/15 01:16:29;;;;;;;10.40;8.23;;;2.20;48.50;;;;;;4988425;28;20445;-57
2023/12/15 01:18:56;;;;;;;9.30;8.00;;;2.20;49.80;;;;;;4984898;28;20883;-56
2023/12/15 01:21:21;;;;;;;11.70;8.40;;;2.20;50.80;;;;;;4987931;28;20504;-56
2023/12/15 01:23:48;;;;;;;11.70;8.07;;;2.20;50.90;;;;;;4989450;28;20951;-57
2023/12/15 01:26:15;;;;;;;12.07;8.80;;;2.20;51.40;;;;;;4986487;28;20221;-57
2023/12/15 01:28:43;;;;;;;10.77;8.67;;;2.20;51.90;;;;;;4986590;28;20472;-56
2023/12/15 01:31:09;;;;;;;10.50;7.90;;;2.20;51.50;;;;;;4987830;28;20445;-56
2023/12/15 01:33:36;;;;;;;9.40;7.53;;;2.20;51.30;;;;;;4981692;28;20510;-58
2023/12/15 01:36:03;;;;;;;10.07;8.10;;;2.20;51.80;;;;;;4985265;28;20507;-56
2023/12/15 01:38:29;;;;;;;9.70;7.67;;;2.20;53.70;;;;;;4985511;28;20620;-56
2023/12/15 01:40:56;;;;;;;8.87;7.53;;;2.20;52.60;;;;;;4990344;28;20499;-57
2023/12/15 01:43:22;;;;;;;10.53;7.80;;;2.20;51.10;;;;;;4987352;28;20765;-56
2023/12/15 01:45:50;;;;;;;10.47;7.93;;;2.20;50.40;;;;;;4986417;28;20547;-56
2023/12/15 01:48:17;;;;;;;8.30;7.10;;;2.20;50.00;;;;;;4988073;28;20465;-58
2023/12/15 01:50:44;;;;;;;8.40;7.17;;;2.10;51.00;;;;;;4981264;28;20545;-55
2023/12/15 01:53:11;;;;;;;11.83;7.60;;;2.10;49.90;;;;;;4984172;28;21115;-57
2023/12/15 01:55:37;;;;;;;10.37;7.87;;;2.10;50.10;;;;;;4985964;28;20440;-56
2023/12/15 01:58:04;;;;;;;9.73;7.40;;;2.00;50.00;;;;;;4986655;28;20468;-55
2023/12/15 02:00:30;;;;;;;9.90;8.07;;;2.00;49.30;;;;;;4988085;28;21017;-56
2023/12/15 02:02:58;;;;;;;10.60;7.80;;;1.90;48.00;;;;;;4987236;28;20846;-56
2023/12/15 02:05:25;;;;;;;7.57;6.83;;;1.90;47.80;;;;;;4987355;28;20449;-57
2023/12/15 02:07:52;;;;;;;8.13;7.10;;;1.80;47.70;;;;;;4985239;28;20535;-57
2023/12/15 02:10:18;;;;;;;13.13;7.60;;;1.80;48.00;;;;;;4984144;28;21010;-56
2023/12/15 02:12:45;;;;;;;7.33;6.47;;;1.80;47.30;;;;;;4991578;28;20445;-58
2023/12/15 02:15:11;;;;;;;8.80;7.10;;;1.70;46.60;;;;;;4991840;28;20854;-57
2023/12/15 02:17:38;;;;;;;8.63;7.37;;;1.60;47.00;;;;;;4984198;28;20469;-57
2023/12/15 02:20:08;;;;;;;9.80;7.20;;;1.50;47.10;;;;;;4982682;28;20500;-56
2023/12/15 02:22:35;;;;;;;8.90;8.00;;;1.50;45.20;;;;;;4984710;28;20449;-57
2023/12/15 02:25:02;;;;;;;7.33;6.60;;;1.40;47.40;;;;;;4984610;28;20457;-57
2023/12/15 02:27:29;;;;;;;8.10;7.30;;;1.20;47.00;;;;;;4995325;28;20492;-56
2023/12/15 02:29:55;;;;;;;7.50;6.80;;;1.20;47.70;;;;;;4991026;28;20448;-57
2023/12/15 02:32:22;;;;;;;7.37;6.00;;;1.10;48.20;;;;;;4994859;28;20942;-57
2023/12/15 02:34:48;;;;;;;7.90;5.93;;;1.00;47.80;;;;;;4989168;28;20523;-56
2023/12/15 02:37:15;;;;;;;8.03;6.10;;;0.90;47.40;;;;;;4984692;28;20456;-57
2023/12/15 02:39:43;;;;;;;7.00;6.30;;;0.80;48.20;;;;;;4992303;28;20441;-56
2023/12/15 02:42:09;;;;;;;7.13;6.20;;;0.70;48.60;;;;;;4992790;28;20440;-59
2023/12/15 02:44:36;;;;;;;7.87;7.03;;;0.60;48.40;;;;;;4993804;28;20440;-57
2023/12/15 02:47:03;;;;;;;7.40;6.70;;;0.60;47.20;;;;;;4994484;28;21075;-56
2023/12/15 02:49:29;;;;;;;7.20;6.30;;;0.50;46.70;;;;;;4991834;28;20885;-58
2023/12/15 02:51:56;;;;;;;9.87;7.07;;;0.50;46.00;;;;;;4995237;28;20448;-57
2023/12/15 02:54:22;;;;;;;7.37;6.67;;;0.50;44.80;;;;;;4990543;28;20444;-57
2023/12/15 02:56:50;;;;;;;8.27;7.37;;;0.60;41.70;;;;;;4994576;28;20448;-56
2023/12/15 02:59:17;;;;;;;7.87;6.50;;;0.70;39.50;;;;;;4994766;28;20495;-58
2023/12/15 03:01:43;;;;;;;7.83;7.00;;;0.90;35.80;;;;;;4994520;28;20993;-57
2023/12/15 03:04:10;;;;;;;11.57;7.30;;;1.00;34.90;;;;;;4994265;28;20535;-58
2023/12/15 03:06:36;;;;;;;16.97;7.43;;;1.00;34.80;;;;;;4993385;28;20543;-57
2023/12/15 03:09:03;;;;;;;7.80;7.00;;;1.00;34.20;;;;;;4994667;28;20514;-58
2023/12/15 03:11:30;;;;;;;12.30;7.83;;;1.10;33.80;;;;;;4994126;28;20471;-57
2023/12/15 03:13:57;;;;;;;8.97;6.87;;;1.10;33.50;;;;;;4994395;28;20471;-58
2023/12/15 03:16:24;;;;;;;9.80;7.50;;;1.10;33.10;;;;;;4994483;28;20477;-58
2023/12/15 03:18:51;;;;;;;9.43;7.90;;;1.10;33.00;;;;;;4992435;28;20545;-58
2023/12/15 03:21:18;;;;;;;18.70;9.23;;;1.20;32.80;;;;;;4994332;28;20519;-58
2023/12/15 03:23:44;;;;;;;10.43;7.40;;;1.20;32.10;;;;;;4994487;28;20533;-57
2023/12/15 03:26:11;;;;;;;10.30;7.57;;;1.20;32.00;;;;;;4993557;28;20542;-58
2023/12/15 03:28:39;;;;;;;13.63;8.83;;;1.20;31.30;;;;;;4993941;28;20977;-57
2023/12/15 03:31:08;;;;;;;11.73;7.97;;;1.30;30.90;;;;;;4994148;28;20441;-57
2023/12/15 03:33:35;;;;;;;21.83;8.43;;;1.30;30.50;;;;;;4993819;28;20453;-57
2023/12/15 03:36:02;;;;;;;14.20;8.80;;;1.20;30.40;;;;;;4992940;28;20437;-58
2023/12/15 03:38:29;;;;;;;28.03;7.73;;;1.20;30.30;;;;;;4993569;28;20491;-58
2023/12/15 03:40:55;;;;;;;49.60;7.90;;;1.20;30.00;;;;;;4993901;28;20499;-58
2023/12/15 03:43:22;;;;;;;47.97;8.07;;;1.20;30.30;;;;;;4986902;28;20437;-57
2023/12/15 03:45:48;;;;;;;103.93;9.00;;;1.20;30.40;;;;;;4989270;28;20448;-58
2023/12/15 03:48:16;;;;;;;25.97;8.30;;;1.20;30.30;;;;;;4989105;28;20472;-58
2023/12/15 03:50:43;;;;;;;36.60;8.20;;;1.10;30.10;;;;;;4988956;28;20450;-57
2023/12/15 03:53:10;;;;;;;51.70;8.40;;;1.10;30.30;;;;;;4989670;28;20445;-58
2023/12/15 03:55:36;;;;;;;23.90;7.80;;;1.10;30.30;;;;;;4994572;28;20507;-58
2023/12/15 03:58:03;;;;;;;112.10;8.60;;;1.10;29.80;;;;;;4989975;28;20878;-57
2023/12/15 04:00:30;;;;;;;166.53;8.03;;;1.10;29.70;;;;;;4987133;28;20531;-58
2023/12/15 04:02:56;;;;;;;87.47;6.23;;;1.10;30.00;;;;;;4992211;28;20445;-57
2023/12/15 04:05:24;;;;;;;90.77;7.20;;;1.00;30.10;;;;;;4988241;28;20469;-57
2023/12/15 04:07:51;;;;;;;79.10;7.47;;;1.00;30.30;;;;;;4988800;28;20496;-58
2023/12/15 04:10:17;;;;;;;139.43;7.57;;;1.00;30.10;;;;;;4993441;28;20453;-57
2023/12/15 04:12:44;;;;;;;66.87;6.67;;;1.00;30.10;;;;;;4992990;28;20449;-57
2023/12/15 04:15:11;;;;;;;64.47;6.33;;;1.00;30.30;;;;;;4993130;28;21003;-57
2023/12/15 04:17:37;;;;;;;33.93;5.90;;;1.00;30.00;;;;;;4993241;28;20483;-57
2023/12/15 04:20:04;;;;;;;70.67;6.70;;;1.00;30.00;;;;;;4993232;28;20926;-57
2023/12/15 04:22:32;;;;;;;46.90;5.30;;;0.90;30.90;;;;;;4993226;28;20499;-58
2023/12/15 04:24:59;;;;;;;61.23;6.97;;;0.80;31.00;;;;;;4992193;28;20441;-56
2023/12/15 04:27:26;;;;;;;22.43;5.27;;;0.80;31.30;;;;;;4992710;28;21072;-58
2023/12/15 04:29:52;;;;;;;43.07;6.10;;;0.80;31.40;;;;;;4992614;28;20516;-58
2023/12/15 04:32:19;;;;;;;29.27;6.37;;;0.70;31.30;;;;;;4993092;28;20440;-58
2023/12/15 04:34:45;;;;;;;40.37;5.83;;;0.70;31.50;;;;;;4982631;28;20863;-58
2023/12/15 04:37:12;;;;;;;23.40;5.43;;;0.70;31.60;;;;;;4989399;28;20577;-57
2023/12/15 04:39:40;;;;;;;33.80;5.93;;;0.70;32.50;;;;;;4991838;28;20441;-57
2023/12/15 04:42:07;;;;;;;38.00;6.73;;;0.60;32.70;;;;;;4990680;28;20445;-57
2023/12/15 04:44:35;;;;;;;34.77;5.27;;;0.60;32.40;;;;;;4991798;28;20449;-56
2023/12/15 04:47:02;;;;;;;12.83;5.03;;;0.60;32.60;;;;;;4989085;28;20566;-57
2023/12/15 04:49:28;;;;;;;44.93;5.57;;;0.60;32.60;;;;;;4990793;28;20448;-58
2023/12/15 04:51:55;;;;;;;24.03;5.87;;;0.60;32.90;;;;;;4990698;28;20445;-57
2023/12/15 04:54:22;;;;;;;8.93;5.10;;;0.60;30.90;;;;;;4994742;28;20948;-58
2023/12/15 04:56:50;;;;;;;20.00;5.70;;;0.60;33.10;;;;;;4990492;28;20453;-57
2023/12/15 04:59:16;;;;;;;35.37;5.40;;;0.50;33.60;;;;;;4989002;28;20441;-57
2023/12/15 05:01:44;;;;;;;10.43;5.57;;;0.60;33.20;;;;;;4990839;28;20452;-57
2023/12/15 05:04:10;;;;;;;25.60;5.37;;;0.60;33.10;;;;;;4988711;28;20499;-57
2023/12/15 05:06:37;;;;;;;42.03;5.13;;;0.50;34.50;;;;;;4982242;28;20533;-57
2023/12/15 05:09:04;;;;;;;93.80;5.93;;;0.50;33.40;;;;;;4986848;28;20464;-57
2023/12/15 05:11:34;;;;;;;59.83;6.17;;;0.60;33.10;;;;;;4988612;28;20464;-57
2023/12/15 05:14:02;;;;;;;80.03;5.97;;;0.50;33.30;;;;;;4990157;28;20848;-58
2023/12/15 05:16:29;;;;;;;27.33;4.83;;;0.50;34.00;;;;;;4992138;28;20445;-57
2023/12/15 05:18:56;;;;;;;36.63;5.20;;;0.50;33.60;;;;;;4992124;28;20515;-58
2023/12/15 05:21:23;;;;;;;21.73;5.10;;;0.50;33.30;;;;;;4985741;28;20528;-57
2023/12/15 05:23:49;;;;;;;36.47;5.83;;;0.50;33.80;;;;;;4988708;28;20445;-56
2023/12/15 05:26:16;;;;;;;22.53;5.00;;;0.50;33.60;;;;;;4984407;28;20448;-58
2023/12/15 05:28:44;;;;;;;28.97;5.97;;;0.50;33.80;;;;;;4976757;23;20868;-61
2023/12/15 05:31:12;;;;;;;35.97;5.90;;;0.50;33.90;;;;;;4967402;28;20446;-61
2023/12/15 05:33:38;;;;;;;35.57;5.70;;;0.50;34.20;;;;;;4969626;28;20437;-61
2023/12/15 05:39:02;;;;;;;9.40;6.00;;;0.50;33.50;;;;;;4967020;28;20486;-60
2023/12/15 05:41:29;;;;;;;11.53;5.07;;;0.50;33.70;;;;;;4953513;29;20464;-58
2023/12/15 05:43:56;;;;;;;6.87;6.17;;;0.60;33.30;;;;;;4958850;28;20512;-59
2023/12/15 05:46:24;;;;;;;39.13;6.20;;;0.50;33.20;;;;;;4953191;28;20798;-60
2023/12/15 05:48:50;;;;;;;17.80;5.90;;;0.50;33.50;;;;;;4952587;28;20462;-60
2023/12/15 05:51:17;;;;;;;15.53;6.17;;;0.60;33.40;;;;;;4953476;28;20498;-60
2023/12/15 05:53:44;;;;;;;6.23;5.63;;;0.60;33.40;;;;;;4955976;28;20787;-60
2023/12/15 05:56:10;;;;;;;6.07;5.47;;;0.60;33.70;;;;;;4953203;28;20995;-60
2023/12/15 05:58:37;;;;;;;7.40;6.80;;;0.60;33.50;;;;;;4954958;28;20518;-59
2023/12/15 06:01:04;;;;;;;27.30;8.10;;;0.70;33.20;;;;;;4956976;28;21007;-60
2023/12/15 06:03:32;;;;;;;14.77;8.10;;;0.60;34.20;;;;;;4960897;28;21018;-60
2023/12/15 06:05:58;;;;;;;12.10;9.87;;;0.70;32.60;;;;;;4956075;28;20438;-60
2023/12/15 06:08:25;;;;;;;22.10;9.03;;;0.70;33.10;;;;;;4960233;28;20489;-59
2023/12/15 06:10:51;;;;;;;17.10;9.90;;;0.70;33.30;;;;;;4958894;28;20449;-60
2023/12/15 06:13:18;;;;;;;10.80;8.40;;;0.60;34.10;;;;;;4956827;28;20871;-60
2023/12/15 06:15:44;;;;;;;28.00;8.63;;;0.60;34.10;;;;;;4956570;28;20497;-59
2023/12/15 06:18:11;;;;;;;15.93;8.30;;;0.60;33.80;;;;;;4957065;28;20521;-59
2023/12/15 06:20:39;;;;;;;19.77;8.03;;;0.60;33.80;;;;;;4957669;28;20446;-59
2023/12/15 06:23:06;;;;;;;9.07;8.10;;;0.70;33.50;;;;;;4955968;28;20799;-59
2023/12/15 06:25:32;;;;;;;9.70;7.87;;;0.70;33.60;;;;;;4956190;28;20454;-59
2023/12/15 06:27:59;;;;;;;21.30;8.10;;;0.70;33.50;;;;;;4956519;28;20560;-60
2023/12/15 06:30:25;;;;;;;11.07;7.73;;;0.70;33.40;;;;;;4956418;28;20446;-61
2023/12/15 06:32:52;;;;;;;10.70;7.07;;;0.70;33.30;;;;;;4956649;28;20476;-61
2023/12/15 06:35:19;;;;;;;9.60;8.77;;;0.70;33.20;;;;;;4957217;28;20442;-60
2023/12/15 06:37:47;;;;;;;14.13;7.87;;;0.70;33.60;;;;;;4956242;28;20470;-60
2023/12/15 06:40:14;;;;;;;8.50;7.70;;;0.70;33.80;;;;;;4955747;28;20482;-60
2023/12/15 06:42:40;;;;;;;9.70;8.17;;;0.70;33.90;;;;;;4956060;28;20493;-60
2023/12/15 06:45:08;;;;;;;11.37;7.63;;;0.70;33.60;;;;;;4964404;28;20704;-61
2023/12/15 06:47:37;;;;;;;13.07;7.93;;;0.70;33.30;;;;;;4956023;28;20490;-61
2023/12/15 06:50:04;;;;;;;12.07;7.77;;;0.70;33.80;;;;;;4960667;28;20872;-60
2023/12/15 06:52:32;;;;;;;26.57;8.83;;;0.70;33.70;;;;;;4955315;28;20446;-61
2023/12/15 06:55:00;;;;;;;26.87;8.13;;;0.80;33.20;;;;;;4955678;28;20442;-61
2023/12/15 06:57:27;;;;;;;33.47;6.70;;;0.80;33.50;;;;;;4955810;28;20457;-60
2023/12/15 06:59:53;;;;;;;10.63;8.50;;;0.80;33.30;;;;;;4955771;28;20450;-59
2023/12/15 07:02:20;;;;;;;20.83;7.40;;;0.80;33.80;;;;;;4956393;28;20966;-60
2023/12/15 07:04:46;;;;;;;16.73;7.80;;;0.70;34.30;;;;;;4956103;28;21009;-60
2023/12/15 07:07:13;;;;;;;25.97;8.27;;;0.80;33.50;;;;;;4955035;28;20485;-61
2023/12/15 07:09:40;;;;;;;10.13;8.40;;;0.80;33.20;;;;;;4961538;28;21040;-60
2023/12/15 07:12:09;;;;;;;12.40;8.97;;;0.80;33.00;;;;;;4955799;28;20894;-61
2023/12/15 07:14:35;;;;;;;14.47;8.47;;;0.80;32.60;;;;;;4955521;28;20960;-60
2023/12/15 07:17:02;;;;;;;18.93;8.37;;;0.90;32.50;;;;;;4947939;28;20442;-61
2023/12/15 07:19:28;;;;;;;11.00;9.37;;;0.90;32.40;;;;;;4954287;28;20462;-60
2023/12/15 07:21:55;;;;;;;14.80;10.53;;;1.00;32.00;;;;;;4954906;28;20450;-60
2023/12/15 07:24:22;;;;;;;21.83;9.67;;;1.00;31.70;;;;;;4955621;28;20741;-59
2023/12/15 07:26:48;;;;;;;10.80;9.40;;;1.10;31.20;;;;;;4961660;28;20822;-59
2023/12/15 07:29:16;;;;;;;14.60;10.10;;;1.10;31.30;;;;;;4953762;28;20494;-60
2023/12/15 07:31:43;;;;;;;21.33;8.80;;;1.10;31.10;;;;;;4955538;28;20446;-59
2023/12/15 07:34:10;;;;;;;14.93;9.87;;;1.00;34.80;;;;;;4955383;28;21078;-60
2023/12/15 07:36:36;;;;;;;21.70;11.03;;;1.10;32.60;;;;;;4957810;28;20545;-59
2023/12/15 07:39:03;;;;;;;12.00;10.47;;;1.10;32.70;;;;;;4959644;28;20458;-61
2023/12/15 07:41:29;;;;;;;25.97;9.57;;;1.20;32.20;;;;;;4954963;28;20447;-61
2023/12/15 07:43:56;;;;;;;14.60;10.93;;;1.20;32.00;;;;;;4955151;28;20883;-59
2023/12/15 07:46:24;;;;;;;16.10;10.47;;;1.10;32.00;;;;;;4955149;28;20920;-61
2023/12/15 07:48:51;;;;;;;19.80;12.50;;;1.20;32.20;;;;;;4959050;28;20494;-61
2023/12/15 07:51:18;;;;;;;24.83;12.90;;;1.20;32.10;;;;;;4955373;28;20451;-60
2023/12/15 07:53:46;;;;;;;27.20;12.10;;;1.30;31.20;;;;;;4957318;28;20506;-60
2023/12/15 07:56:20;;;;;;;21.33;12.93;;;1.30;30.70;;;;;;4959875;28;20489;-60
2023/12/15 07:58:47;;;;;;;16.23;13.30;;;1.40;30.90;;;;;;4954703;28;20459;-59
2023/12/15 08:01:13;;;;;;;43.67;13.37;;;1.40;30.60;;;;;;4960230;28;20442;-61
2023/12/15 08:03:41;;;;;;;19.73;14.23;;;1.40;31.40;;;;;;4954720;28;20505;-61
2023/12/15 08:06:08;;;;;;;34.33;14.50;;;1.30;31.60;;;;;;4945931;28;20522;-61
2023/12/15 08:08:35;;;;;;;25.30;12.50;;;1.30;31.60;;;;;;4950735;28;20494;-60
2023/12/15 08:11:01;;;;;;;41.33;14.20;;;1.40;31.40;;;;;;4952427;28;20957;-60
2023/12/15 08:13:28;;;;;;;50.00;15.03;;;1.40;31.00;;;;;;4945161;29;20454;-60
2023/12/15 08:15:54;;;;;;;27.87;14.80;;;1.50;30.80;;;;;;4943996;29;20450;-60
2023/12/15 08:18:21;;;;;;;33.90;15.67;;;1.50;30.90;;;;;;4943455;29;20467;-60
2023/12/15 08:20:50;;;;;;;28.47;15.70;;;1.50;30.20;;;;;;4943203;29;20447;-60
2023/12/15 08:23:17;;;;;;;22.37;14.20;;;1.50;30.30;;;;;;4964976;28;20457;-59
2023/12/15 08:25:43;;;;;;;29.07;15.60;;;1.60;29.80;;;;;;4956225;28;20451;-59
2023/12/15 08:28:11;;;;;;;28.23;17.23;;;1.60;30.10;;;;;;4950923;28;20485;-59
2023/12/15 08:30:38;;;;;;;26.33;15.50;;;1.60;30.10;;;;;;4958146;28;20454;-59
2023/12/15 08:33:04;;;;;;;27.60;18.47;;;1.70;29.50;;;;;;4944540;28;20498;-60
2023/12/15 08:35:31;;;;;;;26.50;18.50;;;1.70;29.10;;;;;;4949825;28;20999;-61
2023/12/15 08:37:59;;;;;;;27.87;18.40;;;1.80;28.40;;;;;;4952156;28;20475;-61
2023/12/15 08:40:27;;;;;;;30.37;18.40;;;1.90;27.80;;;;;;4947823;29;20546;-59
2023/12/15 08:42:53;;;;;;;23.87;18.60;;;1.90;27.60;;;;;;4960360;28;20446;-60
2023/12/15 08:45:20;;;;;;;25.23;17.97;;;2.00;26.90;;;;;;4954774;28;20498;-60
2023/12/15 08:47:47;;;;;;;30.10;20.20;;;2.10;26.10;;;;;;4952460;28;20494;-61
2023/12/15 08:50:13;;;;;;;26.13;20.17;;;2.20;26.00;;;;;;4957198;28;20995;-60
2023/12/15 08:52:40;;;;;;;25.23;19.07;;;2.20;26.20;;;;;;4962366;28;20937;-60
2023/12/15 08:55:08;;;;;;;28.27;19.63;;;2.20;26.20;;;;;;4951791;28;20441;-60
2023/12/15 08:57:35;;;;;;;29.97;21.90;;;2.30;26.30;;;;;;4962562;28;20882;-60
2023/12/15 09:00:03;;;;;;;27.73;21.13;;;2.30;27.20;;;;;;4953823;28;20447;-60
2023/12/15 09:02:30;;;;;;;23.93;19.90;;;2.30;27.10;;;;;;4963721;28;20461;-60
2023/12/15 09:04:57;;;;;;;27.23;21.57;;;2.40;26.90;;;;;;4952726;28;20521;-61
2023/12/15 09:07:23;;;;;;;31.30;22.90;;;2.40;26.90;;;;;;4950248;28;20822;-60
2023/12/15 09:09:50;;;;;;;30.60;21.80;;;2.40;26.80;;;;;;4944238;29;20453;-59
2023/12/15 09:12:18;;;;;;;29.30;22.63;;;2.50;26.90;;;;;;4949220;28;20447;-61
2023/12/15 09:14:45;;;;;;;29.10;22.20;;;2.50;26.50;;;;;;4944301;29;20921;-61
2023/12/15 09:17:13;;;;;;;31.80;24.30;;;2.50;26.80;;;;;;4946984;29;20933;-61
2023/12/15 09:19:41;;;;;;;29.97;23.10;;;2.60;26.20;;;;;;4958442;28;20463;-61
2023/12/15 09:22:07;;;;;;;30.37;23.27;;;2.60;25.50;;;;;;4946058;29;20445;-60
2023/12/15 09:24:34;;;;;;;32.27;23.57;;;2.70;25.30;;;;;;4957972;28;20446;-59
2023/12/15 09:27:01;;;;;;;34.03;23.10;;;2.70;25.60;;;;;;4949941;28;20451;-60
2023/12/15 09:29:30;;;;;;;32.20;23.50;;;2.80;26.20;;;;;;4948241;29;20897;-60
2023/12/15 09:31:57;;;;;;;35.63;26.23;;;2.80;26.40;;;;;;4952060;28;20542;-60
2023/12/15 09:34:24;;;;;;;47.67;24.77;;;2.80;27.00;;;;;;4952752;28;20451;-60
2023/12/15 09:36:50;;;;;;;33.10;23.77;;;2.90;26.40;;;;;;4944133;29;20886;-60
2023/12/15 09:39:17;;;;;;;34.33;23.40;;;2.90;27.80;;;;;;4949312;29;20507;-59
2023/12/15 09:41:43;;;;;;;31.90;23.00;;;2.90;30.40;;;;;;4950721;28;20493;-59
2023/12/15 09:44:10;;;;;;;34.47;22.90;;;3.00;29.40;;;;;;4960579;28;20478;-60
2023/12/15 09:46:39;;;;;;;30.33;22.80;;;3.00;31.80;;;;;;4947036;28;20457;-59
2023/12/15 09:49:06;;;;;;;33.67;23.97;;;3.00;31.50;;;;;;4953144;28;20988;-61
2023/12/15 09:51:36;;;;;;;32.73;23.93;;;3.00;33.90;;;;;;4955483;28;20864;-60
2023/12/15 09:54:02;;;;;;;29.83;22.77;;;3.10;33.20;;;;;;4958513;28;20447;-60
2023/12/15 09:56:29;;;;;;;33.80;24.33;;;3.10;32.90;;;;;;4959470;28;20446;-59
2023/12/15 09:58:56;;;;;;;33.57;24.53;;;3.10;33.50;;;;;;4947585;28;20466;-60
2023/12/15 10:01:22;;;;;;;35.40;23.73;;;3.20;35.50;;;;;;4948271;28;20455;-60
2023/12/15 10:03:50;;;;;;;30.30;22.63;;;3.20;39.10;;;;;;4949210;29;20549;-60
2023/12/15 10:06:18;;;;;;;33.77;23.77;;;3.30;38.80;;;;;;4947374;28;20450;-61
2023/12/15 10:08:46;;;;;;;33.70;22.60;;;3.20;44.10;;;;;;4957594;28;20486;-60
2023/12/15 10:11:12;;;;;;;35.93;24.73;;;3.20;42.70;;;;;;4954409;28;20500;-60
2023/12/15 10:13:40;;;;;;;34.07;24.30;;;3.30;42.90;;;;;;4953648;28;20501;-61
2023/12/15 10:16:09;;;;;;;30.50;23.00;;;3.30;44.60;;;;;;4954454;28;20453;-61
2023/12/15 10:18:36;;;;;;;31.67;23.20;;;3.30;46.70;;;;;;4957229;28;20497;-61
2023/12/15 10:21:05;;;;;;;35.47;24.20;;;3.30;50.40;;;;;;4942360;29;20461;-60
2023/12/15 10:23:33;;;;;;;34.23;23.50;;;3.30;50.00;;;;;;4948451;29;20558;-60
2023/12/15 10:26:00;;;;;;;28.03;21.47;;;3.40;49.70;;;;;;4961232;28;20454;-60
2023/12/15 10:28:27;;;;;;;33.00;23.07;;;3.40;52.10;;;;;;4960800;28;21000;-60
2023/12/15 10:30:53;;;;;;;31.63;23.83;;;3.40;54.30;;;;;;4951724;29;20528;-60
2023/12/15 10:33:21;;;;;;;32.40;24.60;;;3.50;54.30;;;;;;4952506;28;20442;-61
2023/12/15 10:35:48;;;;;;;33.43;22.63;;;3.50;54.50;;;;;;4941940;29;20922;-59
2023/12/15 10:38:16;;;;;;;29.13;22.87;;;3.50;58.00;;;;;;4952658;28;20458;-59
2023/12/15 10:40:43;;;;;;;30.20;20.80;;;3.50;65.00;;;;;;4956898;28;20446;-60
2023/12/15 10:43:11;;;;;;;29.83;21.67;;;3.50;62.80;;;;;;4953705;28;20478;-60
2023/12/15 10:45:38;;;;;;;36.13;24.60;;;3.50;65.80;;;;;;4954605;28;20478;-61
2023/12/15 10:48:05;;;;;;;29.90;22.20;;;3.50;68.80;;;;;;4956698;28;20475;-61
2023/12/15 10:50:32;;;;;;;31.60;22.37;;;3.60;66.60;;;;;;4954803;29;20451;-59
2023/12/15 10:52:59;;;;;;;29.83;21.13;;;3.60;71.50;;;;;;4955810;28;20501;-60
2023/12/15 10:55:28;;;;;;;27.37;20.70;;;3.60;72.70;;;;;;4956296;28;20446;-59
2023/12/15 10:57:58;;;;;;;26.80;21.13;;;3.60;72.90;;;;;;4957579;28;20533;-58
2023/12/15 11:00:25;;;;;;;29.60;21.73;;;3.60;76.10;;;;;;4968973;28;20454;-60
2023/12/15 11:02:54;;;;;;;28.13;22.87;;;3.50;78.20;;;;;;4949009;28;20451;-60
2023/12/15 11:05:21;;;;;;;34.80;22.43;;;3.60;78.70;;;;;;4958377;28;20458;-62
2023/12/15 11:07:50;;;;;;;29.73;22.43;;;3.60;82.80;;;;;;4955449;28;20462;-59
2023/12/15 11:10:17;;;;;;;32.27;22.73;;;3.60;84.80;;;;;;4947741;28;20582;-60
2023/12/15 11:12:45;;;;;;;28.03;21.97;;;3.60;82.20;;;;;;4956587;28;20450;-60
2023/12/15 11:15:13;;;;;;;30.10;22.57;;;3.60;81.20;;;;;;4943972;29;20446;-59
2023/12/15 11:17:42;;;;;;;27.47;21.27;;;3.60;79.30;;;;;;4957284;28;20466;-61
2023/12/15 11:20:32;;;;;;;28.53;22.50;;;3.50;74.30;;;;;;4944603;28;20442;-61
2023/12/15 11:23:01;;;;;;;29.30;21.50;;;3.60;74.10;;;;;;4957600;28;20446;-60
2023/12/15 11:25:32;;;;;;;26.13;19.93;;;3.50;68.70;;;;;;4946077;29;20534;-60
2023/12/15 11:28:07;;;;;;;29.97;22.83;;;3.50;60.00;;;;;;4955560;28;20825;-59
2023/12/15 11:30:36;;;;;;;28.40;20.40;;;3.50;61.30;;;;;;4954607;29;20936;-60
2023/12/15 11:33:44;;;;;;;29.13;21.77;;;3.50;58.30;;;;;;4942528;29;20483;-60
2023/12/15 11:36:13;;;;;;;25.63;20.37;;;3.50;48.50;;;;;;4947857;28;20451;-59
2023/12/15 11:38:40;;;;;;;28.63;21.50;;;3.50;46.80;;;;;;4954580;28;20463;-58
2023/12/15 11:41:08;;;;;;;29.03;21.00;;;3.50;45.10;;;;;;4945327;28;20439;-60
2023/12/15 11:43:37;;;;;;;29.87;22.20;;;3.50;43.20;;;;;;4944148;29;20880;-59
2023/12/15 11:46:04;;;;;;;28.73;21.20;;;3.50;42.30;;;;;;4943142;28;20838;-60
2023/12/15 11:48:33;;;;;;;30.10;23.07;;;3.50;40.20;;;;;;4951129;28;20617;-60
2023/12/15 11:51:01;;;;;;;29.70;21.70;;;3.50;35.70;;;;;;4953815;28;20485;-59
2023/12/15 11:53:28;;;;;;;39.70;24.50;;;3.60;35.70;;;;;;4951805;28;20510;-59
2023/12/15 11:55:57;;;;;;;36.90;23.60;;;3.60;34.30;;;;;;4945226;28;20454;-60
2023/12/15 11:58:23;;;;;;;33.37;22.00;;;3.60;31.60;;;;;;4955446;28;20473;-59
2023/12/15 12:00:51;;;;;;;31.90;21.40;;;3.60;31.90;;;;;;4943494;29;20456;-60
2023/12/15 12:03:19;;;;;;;35.70;22.63;;;3.70;30.70;;;;;;4948142;29;20447;-59
2023/12/15 12:05:47;;;;;;;42.67;26.30;;;3.70;30.20;;;;;;4946864;28;20821;-60
2023/12/15 12:08:15;;;;;;;42.07;26.17;;;3.70;29.30;;;;;;4952435;28;20491;-60
2023/12/15 12:10:42;;;;;;;41.53;24.30;;;3.70;28.70;;;;;;4954675;28;20577;-59
2023/12/15 12:13:10;;;;;;;40.67;25.47;;;3.70;27.40;;;;;;4954500;28;20446;-60
2023/12/15 12:15:51;;;;;;;39.90;23.00;;;3.80;27.30;;;;;;4947778;28;20498;-60
2023/12/15 12:18:19;;;;;;;32.50;22.43;;;3.80;26.90;;;;;;4953434;28;20482;-60
2023/12/15 12:20:46;;;;;;;28.20;20.63;;;3.80;26.60;;;;;;4945344;29;20840;-60
2023/12/15 12:23:13;;;;;;;32.70;23.27;;;3.80;26.00;;;;;;4950036;29;20451;-59
2023/12/15 12:25:44;;;;;;;30.70;22.17;;;3.80;25.10;;;;;;4951418;28;20455;-60
2023/12/15 12:28:11;;;;;;;34.67;23.23;;;3.80;26.00;;;;;;4946153;28;20474;-59
2023/12/15 12:30:38;;;;;;;32.40;22.97;;;3.80;25.00;;;;;;4948329;28;20482;-60
2023/12/15 12:33:06;;;;;;;35.00;22.97;;;3.80;24.90;;;;;;4953005;28;20869;-59
2023/12/15 12:35:33;;;;;;;35.83;23.40;;;3.80;24.50;;;;;;4942181;29;20858;-59
2023/12/15 12:37:59;;;;;;;29.60;22.30;;;3.90;24.10;;;;;;4943120;28;20517;-59
2023/12/15 12:40:26;;;;;;;32.93;23.13;;;3.80;24.80;;;;;;4951173;28;20438;-60
2023/12/15 12:42:53;;;;;;;34.43;22.13;;;3.90;24.00;;;;;;4956119;28;20446;-59
2023/12/15 12:45:20;;;;;;;34.10;23.57;;;3.90;21.80;;;;;;4942666;28;20452;-60